createdAt,value
2018-09-04T00:00:05.079Z,18.34
2018-09-04T00:02:32.755Z,18.32
2018-09-04T00:05:00.455Z,18.29
2018-09-04T00:07:28.056Z,18.28
2018-09-04T00:09:55.765Z,18.25
2018-09-04T00:12:23.398Z,18.25
2018-09-04T00:14:51.046Z,18.22
2018-09-04T00:17:18.729Z,18.24
2018-09-04T00:19:46.331Z,18.21
2018-09-04T00:22:13.992Z,18.16
2018-09-04T00:24:41.629Z,18.13
2018-09-04T00:27:09.242Z,18.12
2018-09-04T00:29:36.807Z,18.08
2018-09-04T00:32:04.471Z,18.06
2018-09-04T00:34:32.188Z,18.05
2018-09-04T00:36:59.719Z,18.02
2018-09-04T00:39:27.369Z,18.05
2018-09-04T00:41:54.973Z,18.03
2018-09-04T00:44:22.560Z,17.93
2018-09-04T00:46:50.231Z,17.91
2018-09-04T00:49:18.010Z,17.87
2018-09-04T00:51:45.621Z,17.85
2018-09-04T00:54:13.282Z,17.82
2018-09-04T00:56:40.928Z,17.82
2018-09-04T00:59:08.750Z,17.81
2018-09-04T01:01:36.487Z,17.82
2018-09-04T01:04:04.106Z,17.80
2018-09-04T01:06:31.871Z,17.82
2018-09-04T01:08:59.506Z,17.82
2018-09-04T01:11:27.174Z,17.80
2018-09-04T01:13:54.801Z,17.77
2018-09-04T01:16:22.508Z,17.80
2018-09-04T01:18:50.118Z,17.78
2018-09-04T01:21:17.763Z,17.80
2018-09-04T01:23:45.508Z,17.81
2018-09-04T01:26:13.427Z,17.83
2018-09-04T01:28:41.115Z,17.85
2018-09-04T01:31:08.778Z,17.93
2018-09-04T01:33:36.402Z,17.94
2018-09-04T01:36:04.157Z,17.94
2018-09-04T01:38:31.821Z,17.99
2018-09-04T01:40:59.447Z,17.91
2018-09-04T01:43:27.054Z,17.78
2018-09-04T01:45:54.708Z,17.54
2018-09-04T01:48:22.322Z,17.53
2018-09-04T01:50:49.924Z,17.59
2018-09-04T01:53:17.608Z,17.61
2018-09-04T01:55:45.241Z,17.53
2018-09-04T01:58:12.887Z,17.55
2018-09-04T02:00:40.567Z,17.53
2018-09-04T02:03:08.211Z,17.64
2018-09-04T02:05:35.844Z,17.65
2018-09-04T02:08:03.556Z,17.75
2018-09-04T02:10:31.195Z,17.75
2018-09-04T02:12:58.872Z,17.82
2018-09-04T02:15:26.734Z,17.79
2018-09-04T02:17:54.493Z,17.80
2018-09-04T02:20:22.155Z,17.76
2018-09-04T02:22:49.948Z,17.68
2018-09-04T02:25:17.556Z,17.58
2018-09-04T02:27:45.186Z,17.53
2018-09-04T02:30:12.848Z,17.57
2018-09-04T02:32:40.470Z,17.62
2018-09-04T02:35:08.135Z,17.68
2018-09-04T02:37:35.814Z,17.69
2018-09-04T02:40:03.544Z,17.79
2018-09-04T02:42:31.189Z,17.83
2018-09-04T02:44:58.820Z,17.83
2018-09-04T02:47:26.411Z,17.84
2018-09-04T02:49:54.016Z,17.88
2018-09-04T02:52:21.721Z,17.97
2018-09-04T02:54:49.326Z,18.00
2018-09-04T02:57:16.935Z,18.02
2018-09-04T02:59:44.595Z,18.06
2018-09-04T03:02:12.298Z,18.03
2018-09-04T03:04:39.964Z,18.06
2018-09-04T03:07:07.613Z,18.04
2018-09-04T03:09:35.240Z,17.95
2018-09-04T03:12:02.862Z,17.90
2018-09-04T03:14:30.546Z,17.98
2018-09-04T03:16:58.233Z,17.97
2018-09-04T03:19:25.871Z,17.87
2018-09-04T03:21:53.490Z,17.84
2018-09-04T03:24:21.124Z,17.85
2018-09-04T03:26:48.756Z,17.89
2018-09-04T03:29:16.398Z,17.90
2018-09-04T03:31:44.008Z,18.00
2018-09-04T03:34:11.627Z,18.00
2018-09-04T03:36:39.332Z,18.04
2018-09-04T03:39:08.314Z,18.17
2018-09-04T03:41:35.975Z,18.20
2018-09-04T03:44:03.685Z,18.06
2018-09-04T03:46:31.297Z,18.02
2018-09-04T03:48:58.943Z,18.03
2018-09-04T03:51:26.575Z,17.99
2018-09-04T03:53:54.171Z,17.98
2018-09-04T03:56:21.769Z,17.99
2018-09-04T03:58:49.441Z,17.87
2018-09-04T04:01:17.099Z,17.79
2018-09-04T04:03:44.696Z,17.82
2018-09-04T04:06:12.354Z,17.88
2018-09-04T04:08:39.978Z,17.89
2018-09-04T04:11:07.623Z,17.82
2018-09-04T04:13:35.288Z,17.81
2018-09-04T04:16:02.937Z,17.85
2018-09-04T04:18:30.555Z,17.98
2018-09-04T04:20:59.100Z,17.97
2018-09-04T04:23:27.752Z,17.99
2018-09-04T04:25:56.225Z,17.87
2018-09-04T04:28:24.325Z,17.91
2018-09-04T04:30:51.956Z,17.99
2018-09-04T04:33:19.911Z,18.16
2018-09-04T04:35:47.669Z,18.23
2018-09-04T04:38:15.305Z,18.27
2018-09-04T04:40:42.959Z,18.28
2018-09-04T04:43:10.816Z,18.32
2018-09-04T04:45:38.735Z,18.33
2018-09-04T04:48:06.422Z,18.30
2018-09-04T04:50:34.054Z,18.29
2018-09-04T04:53:01.711Z,18.34
2018-09-04T04:55:29.394Z,18.39
2018-09-04T04:57:57.157Z,18.40
2018-09-04T05:00:24.870Z,18.40
2018-09-04T05:02:52.488Z,18.36
2018-09-04T05:05:20.165Z,18.28
2018-09-04T05:07:47.845Z,18.27
2018-09-04T05:10:15.476Z,18.26
2018-09-04T05:12:43.218Z,18.31
2018-09-04T05:15:10.869Z,18.30
2018-09-04T05:17:38.482Z,18.20
2018-09-04T05:20:07.329Z,18.17
2018-09-04T05:22:35.043Z,18.16
2018-09-04T05:25:02.684Z,18.19
2018-09-04T05:27:30.333Z,18.14
2018-09-04T05:29:57.976Z,18.23
2018-09-04T05:32:42.865Z,18.23
2018-09-04T05:35:12.208Z,18.24
2018-09-04T05:37:40.498Z,18.26
2018-09-04T05:40:08.216Z,18.33
2018-09-04T05:42:39.181Z,18.39
2018-09-04T05:45:07.430Z,18.46
2018-09-04T05:47:36.895Z,18.46
2018-09-04T05:50:05.837Z,18.44
2018-09-04T05:52:33.484Z,18.39
2018-09-04T05:55:01.125Z,18.30
2018-09-04T05:57:28.840Z,18.27
2018-09-04T05:59:56.643Z,18.15
2018-09-04T06:02:24.368Z,18.12
2018-09-04T06:04:52.011Z,18.15
2018-09-04T06:07:19.669Z,18.17
2018-09-04T06:09:47.307Z,18.27
2018-09-04T06:12:15.991Z,18.31
2018-09-04T06:14:43.659Z,18.33
2018-09-04T06:17:11.328Z,18.34
2018-09-04T06:19:38.964Z,18.35
2018-09-04T06:22:06.644Z,18.38
2018-09-04T06:24:34.291Z,18.37
2018-09-04T06:27:02.013Z,18.44
2018-09-04T06:29:29.794Z,18.52
2018-09-04T06:31:57.479Z,18.64
2018-09-04T06:34:25.169Z,18.68
2018-09-04T06:36:52.986Z,18.73
2018-09-04T06:39:21.109Z,18.79
2018-09-04T06:41:48.842Z,18.76
2018-09-04T06:44:16.527Z,18.72
2018-09-04T06:46:44.169Z,18.87
2018-09-04T06:49:11.834Z,18.97
2018-09-04T06:51:39.556Z,18.95
2018-09-04T06:54:07.205Z,19.04
2018-09-04T06:56:34.907Z,19.09
2018-09-04T06:59:02.593Z,19.10
2018-09-04T07:01:30.267Z,19.12
2018-09-04T07:03:57.902Z,19.19
2018-09-04T07:06:25.605Z,19.34
2018-09-04T07:08:53.259Z,19.49
2018-09-04T07:11:20.885Z,19.57
2018-09-04T07:13:48.596Z,19.59
2018-09-04T07:16:16.308Z,19.67
2018-09-04T07:18:43.984Z,19.75
2018-09-04T07:21:11.618Z,19.87
2018-09-04T07:23:39.300Z,19.92
2018-09-04T07:26:06.982Z,19.78
2018-09-04T07:28:34.668Z,19.87
2018-09-04T07:31:02.395Z,20.09
2018-09-04T07:33:30.167Z,20.17
2018-09-04T07:35:57.955Z,20.29
2018-09-04T07:38:25.644Z,20.55
2018-09-04T07:40:53.285Z,20.97
2018-09-04T07:43:20.984Z,21.54
2018-09-04T07:45:48.618Z,22.11
2018-09-04T07:48:16.273Z,22.19
2018-09-04T07:50:43.965Z,22.11
2018-09-04T07:53:11.700Z,22.11
2018-09-04T07:55:39.350Z,22.30
2018-09-04T07:58:07.031Z,22.82
2018-09-04T08:00:34.727Z,23.33
2018-09-04T08:03:02.377Z,23.32
2018-09-04T08:05:30.081Z,23.44
2018-09-04T08:07:57.851Z,23.21
2018-09-04T08:10:25.547Z,23.48
2018-09-04T08:12:53.264Z,23.90
2018-09-04T08:15:21.050Z,24.05
2018-09-04T08:17:48.694Z,24.02
2018-09-04T08:20:16.421Z,23.83
2018-09-04T08:22:44.110Z,23.56
2018-09-04T08:25:11.740Z,23.98
2018-09-04T08:27:39.437Z,24.30
2018-09-04T08:30:07.216Z,24.07
2018-09-04T08:32:34.856Z,24.04
2018-09-04T08:35:02.555Z,24.48
2018-09-04T08:37:30.226Z,24.86
2018-09-04T08:39:57.899Z,25.50
2018-09-04T08:42:25.560Z,25.65
2018-09-04T08:44:53.260Z,26.13
2018-09-04T08:47:21.334Z,26.51
2018-09-04T08:49:49.102Z,26.74
2018-09-04T08:52:16.757Z,27.51
2018-09-04T08:54:44.495Z,28.16
2018-09-04T08:57:12.260Z,28.67
2018-09-04T08:59:39.920Z,29.21
2018-09-04T09:02:07.539Z,29.14
2018-09-04T09:04:35.290Z,29.10
2018-09-04T09:07:02.946Z,29.03
2018-09-04T09:09:30.580Z,28.99
2018-09-04T09:11:58.244Z,29.25
2018-09-04T09:14:25.919Z,29.93
2018-09-04T09:16:53.558Z,29.37
2018-09-04T09:19:21.265Z,28.67
2018-09-04T09:21:48.974Z,28.23
2018-09-04T09:24:16.607Z,28.33
2018-09-04T09:26:44.298Z,28.63
2018-09-04T09:29:11.971Z,28.83
2018-09-04T09:31:39.662Z,29.52
2018-09-04T09:34:07.342Z,29.49
2018-09-04T09:36:35.040Z,29.75
2018-09-04T09:39:03.011Z,29.37
2018-09-04T09:41:30.731Z,29.52
2018-09-04T09:43:58.498Z,29.79
2018-09-04T09:46:26.136Z,30.35
2018-09-04T09:48:53.813Z,30.77
2018-09-04T09:51:21.468Z,30.94
2018-09-04T09:53:49.112Z,30.75
2018-09-04T09:56:16.855Z,30.68
2018-09-04T09:58:44.518Z,30.81
2018-09-04T10:01:17.708Z,31.18
2018-09-04T10:03:50.918Z,30.78
2018-09-04T10:06:19.496Z,31.16
2018-09-04T10:08:47.196Z,30.74
2018-09-04T10:11:14.857Z,30.65
2018-09-04T10:13:42.586Z,30.72
2018-09-04T10:16:10.254Z,30.46
2018-09-04T10:18:37.928Z,31.01
2018-09-04T10:21:05.819Z,31.56
2018-09-04T10:23:33.628Z,32.28
2018-09-04T10:26:01.377Z,32.80
2018-09-04T10:28:29.136Z,33.23
2018-09-04T10:30:56.780Z,33.48
2018-09-04T10:33:24.409Z,33.81
2018-09-04T10:35:52.113Z,34.31
2018-09-04T10:38:23.519Z,34.77
2018-09-04T10:40:52.916Z,35.21
2018-09-04T10:43:20.659Z,35.47
2018-09-04T10:45:53.940Z,35.50
2018-09-04T10:48:25.547Z,35.80
2018-09-04T10:50:53.441Z,35.69
2018-09-04T10:53:21.099Z,35.69
2018-09-04T10:55:48.875Z,35.64
2018-09-04T10:58:16.512Z,35.24
2018-09-04T11:00:44.166Z,35.70
2018-09-04T11:03:11.875Z,34.96
2018-09-04T11:05:39.649Z,35.07
2018-09-04T11:08:07.370Z,35.92
2018-09-04T11:10:35.100Z,35.15
2018-09-04T11:13:02.834Z,34.90
2018-09-04T11:15:30.516Z,35.74
2018-09-04T11:17:58.285Z,36.71
2018-09-04T11:20:26.035Z,34.79
2018-09-04T11:22:53.863Z,33.81
2018-09-04T11:25:21.589Z,33.61
2018-09-04T11:27:49.337Z,32.93
2018-09-04T11:30:17.025Z,34.72
2018-09-04T11:32:44.672Z,36.37
2018-09-04T11:35:12.489Z,37.37
2018-09-04T11:37:40.256Z,38.13
2018-09-04T11:40:08.759Z,38.82
2018-09-04T11:42:36.675Z,39.25
2018-09-04T11:45:05.230Z,39.67
2018-09-04T11:47:32.929Z,40.10
2018-09-04T11:50:00.632Z,40.11
2018-09-04T11:52:28.431Z,38.95
2018-09-04T11:54:56.043Z,38.28
2018-09-04T11:57:23.778Z,37.47
2018-09-04T11:59:51.556Z,38.47
2018-09-04T12:02:22.823Z,39.17
2018-09-04T12:04:50.492Z,39.66
2018-09-04T12:07:18.201Z,39.90
2018-09-04T12:09:45.855Z,40.28
2018-09-04T12:12:19.177Z,40.87
2018-09-04T12:14:46.802Z,41.56
2018-09-04T12:17:14.556Z,41.68
2018-09-04T12:20:52.716Z,41.92
2018-09-04T12:23:20.315Z,42.01
2018-09-04T12:25:49.468Z,42.09
2018-09-04T12:28:17.144Z,42.33
2018-09-04T12:30:44.828Z,42.56
2018-09-04T12:33:12.461Z,43.04
2018-09-04T12:35:40.137Z,42.98
2018-09-04T12:38:11.381Z,41.53
2018-09-04T12:40:39.126Z,38.98
2018-09-04T12:43:06.782Z,37.49
2018-09-04T12:45:39.964Z,36.11
2018-09-04T12:48:07.749Z,35.64
2018-09-04T12:50:35.924Z,37.50
2018-09-04T12:53:03.598Z,38.03
2018-09-04T12:55:31.323Z,36.34
2018-09-04T12:57:58.968Z,35.12
2018-09-04T13:00:26.591Z,34.35
2018-09-04T13:02:54.262Z,33.46
2018-09-04T13:05:21.871Z,32.81
2018-09-04T13:07:49.491Z,32.58
2018-09-04T13:10:17.132Z,35.02
2018-09-04T13:12:44.741Z,36.64
2018-09-04T13:15:12.881Z,37.65
2018-09-04T13:17:40.570Z,38.52
2018-09-04T13:20:08.199Z,39.41
2018-09-04T13:22:35.813Z,39.83
2018-09-04T13:25:03.558Z,40.24
2018-09-04T13:27:31.297Z,40.71
2018-09-04T13:29:58.960Z,41.42
2018-09-04T13:32:26.618Z,41.91
2018-09-04T13:34:54.233Z,41.86
2018-09-04T13:37:22.912Z,42.14
2018-09-04T13:39:55.525Z,42.24
2018-09-04T13:42:23.148Z,42.75
2018-09-04T13:44:53.683Z,42.72
2018-09-04T13:47:22.169Z,42.64
2018-09-04T13:49:49.815Z,42.56
2018-09-04T13:52:17.441Z,42.41
2018-09-04T13:54:45.091Z,42.22
2018-09-04T13:57:12.710Z,42.51
2018-09-04T13:59:40.329Z,42.58
2018-09-04T14:02:08.049Z,42.69
2018-09-04T14:04:35.646Z,42.81
2018-09-04T14:07:03.324Z,42.86
2018-09-04T14:09:31.011Z,42.71
2018-09-04T14:11:58.693Z,42.77
2018-09-04T14:14:26.317Z,42.54
2018-09-04T14:16:54.094Z,42.56
2018-09-04T14:19:21.647Z,42.64
2018-09-04T14:21:49.613Z,42.60
2018-09-04T14:24:17.276Z,40.38
2018-09-04T14:26:44.878Z,40.99
2018-09-04T14:29:53.155Z,41.35
2018-09-04T14:31:40.180Z,41.21
2018-09-04T14:34:07.818Z,39.75
2018-09-04T14:36:36.088Z,40.20
2018-09-04T14:39:04.280Z,40.63
2018-09-04T14:41:32.038Z,40.37
2018-09-04T14:43:59.656Z,40.57
2018-09-04T14:46:27.329Z,40.48
2018-09-04T14:48:55.029Z,40.52
2018-09-04T14:51:22.652Z,40.42
2018-09-04T14:53:50.385Z,40.27
2018-09-04T14:56:18.021Z,40.27
2018-09-04T14:58:45.640Z,39.96
2018-09-04T15:01:13.282Z,39.97
2018-09-04T15:03:40.904Z,39.72
2018-09-04T15:06:08.544Z,39.81
2018-09-04T15:08:36.218Z,39.10
2018-09-04T15:11:03.845Z,38.36
2018-09-04T15:13:31.490Z,38.11
2018-09-04T15:15:59.138Z,38.24
2018-09-04T15:18:26.773Z,38.06
2018-09-04T15:20:54.424Z,37.89
2018-09-04T15:23:22.076Z,37.81
2018-09-04T15:25:49.688Z,38.01
2018-09-04T15:28:17.310Z,38.01
2018-09-04T15:30:44.981Z,37.57
2018-09-04T15:33:12.586Z,37.53
2018-09-04T15:35:40.199Z,37.50
2018-09-04T15:38:07.848Z,37.39
2018-09-04T15:40:35.473Z,37.27
2018-09-04T15:43:03.105Z,36.57
2018-09-04T15:45:30.921Z,36.13
2018-09-04T15:47:58.532Z,35.94
2018-09-04T15:50:26.148Z,35.42
2018-09-04T15:52:53.793Z,34.82
2018-09-04T15:55:21.372Z,34.43
2018-09-04T15:57:49.021Z,34.03
2018-09-04T16:00:16.740Z,33.57
2018-09-04T16:02:44.358Z,33.04
2018-09-04T16:05:11.976Z,32.73
2018-09-04T16:07:39.637Z,32.25
2018-09-04T16:10:07.443Z,31.76
2018-09-04T16:12:34.959Z,31.20
2018-09-04T16:15:02.647Z,30.79
2018-09-04T16:17:30.400Z,30.35
2018-09-04T16:19:58.016Z,29.97
2018-09-04T16:22:25.796Z,29.60
2018-09-04T16:24:53.465Z,29.33
2018-09-04T16:27:21.107Z,29.20
2018-09-04T16:29:48.817Z,28.95
2018-09-04T16:32:16.524Z,28.68
2018-09-04T16:34:44.192Z,28.46
2018-09-04T16:37:11.832Z,28.23
2018-09-04T16:39:39.469Z,28.07
2018-09-04T16:42:07.092Z,27.98
2018-09-04T16:44:34.885Z,27.87
2018-09-04T16:47:02.505Z,27.69
2018-09-04T16:49:30.122Z,27.51
2018-09-04T16:51:59.068Z,27.39
2018-09-04T16:54:27.418Z,27.23
2018-09-04T16:56:55.063Z,27.08
2018-09-04T16:59:22.812Z,26.93
2018-09-04T17:01:50.440Z,26.76
2018-09-04T17:04:18.064Z,26.63
2018-09-04T17:06:46.167Z,26.48
2018-09-04T17:09:13.781Z,26.37
2018-09-04T17:11:41.417Z,26.22
2018-09-04T17:14:09.100Z,26.12
2018-09-04T17:16:36.721Z,26.00
2018-09-04T17:19:04.548Z,25.90
2018-09-04T17:21:32.216Z,25.77
2018-09-04T17:23:59.835Z,25.69
2018-09-04T17:26:27.467Z,25.61
2018-09-04T17:28:55.142Z,25.49
2018-09-04T17:31:22.812Z,25.38
2018-09-04T17:33:50.556Z,25.29
2018-09-04T17:36:18.229Z,25.20
2018-09-04T17:38:45.970Z,25.12
2018-09-04T17:41:13.621Z,25.00
2018-09-04T17:43:41.305Z,24.92
2018-09-04T17:46:08.921Z,24.81
2018-09-04T17:48:36.560Z,24.74
2018-09-04T17:51:04.368Z,24.64
2018-09-04T17:53:32.289Z,24.60
2018-09-04T17:55:59.900Z,24.50
2018-09-04T17:58:27.602Z,24.43
2018-09-04T18:00:55.274Z,24.36
2018-09-04T18:03:23.029Z,24.32
2018-09-04T18:05:50.732Z,24.27
2018-09-04T18:08:18.329Z,24.14
2018-09-04T18:10:46.006Z,24.04
2018-09-04T18:13:13.668Z,23.96
2018-09-04T18:15:41.309Z,23.86
2018-09-04T18:18:08.913Z,23.80
2018-09-04T18:20:36.577Z,23.71
2018-09-04T18:23:04.248Z,23.68
2018-09-04T18:25:31.875Z,23.63
2018-09-04T18:27:59.568Z,23.63
2018-09-04T18:30:28.851Z,23.57
2018-09-04T18:32:56.460Z,23.55
2018-09-04T18:35:24.117Z,23.52
2018-09-04T18:37:51.736Z,23.50
2018-09-04T18:40:19.383Z,23.47
2018-09-04T18:42:47.040Z,23.40
2018-09-04T18:45:50.328Z,23.33
2018-09-04T18:48:18.372Z,23.27
2018-09-04T18:50:46.026Z,23.22
2018-09-04T18:53:13.669Z,23.19
2018-09-04T18:55:41.344Z,23.17
2018-09-04T18:58:09.671Z,23.13
2018-09-04T19:00:37.373Z,23.04
2018-09-04T19:03:05.425Z,22.98
2018-09-04T19:05:33.252Z,22.95
2018-09-04T19:08:00.998Z,22.91
2018-09-04T19:10:28.858Z,22.90
2018-09-04T19:12:56.512Z,22.88
2018-09-04T19:15:24.160Z,22.83
2018-09-04T19:17:51.833Z,22.78
2018-09-04T19:20:19.567Z,22.77
2018-09-04T19:22:47.149Z,22.75
2018-09-04T19:25:14.950Z,22.73
2018-09-04T19:27:42.582Z,22.75
2018-09-04T19:30:10.233Z,22.72
2018-09-04T19:32:37.898Z,22.70
2018-09-04T19:35:05.511Z,22.71
2018-09-04T19:37:33.152Z,22.68
2018-09-04T19:40:00.861Z,22.63
2018-09-04T19:42:28.487Z,22.60
2018-09-04T19:44:56.143Z,22.63
2018-09-04T19:47:23.819Z,22.62
2018-09-04T19:49:51.566Z,22.57
2018-09-04T19:52:19.171Z,22.51
2018-09-04T19:54:46.954Z,22.53
2018-09-04T19:57:14.581Z,22.49
2018-09-04T19:59:42.209Z,22.41
2018-09-04T20:02:09.928Z,22.39
2018-09-04T20:04:37.591Z,22.32
2018-09-04T20:07:05.691Z,22.27
2018-09-04T20:09:33.362Z,22.22
2018-09-04T20:12:00.990Z,22.14
2018-09-04T20:14:28.612Z,22.09
2018-09-04T20:16:56.290Z,22.00
2018-09-04T20:19:23.947Z,21.97
2018-09-04T20:21:51.628Z,21.93
2018-09-04T20:24:19.330Z,21.89
2018-09-04T20:26:46.981Z,21.86
2018-09-04T20:29:14.617Z,21.87
2018-09-04T20:31:42.332Z,21.81
2018-09-04T20:34:09.966Z,21.73
2018-09-04T20:36:37.590Z,21.68
2018-09-04T20:39:06.030Z,21.60
2018-09-04T20:41:33.753Z,21.53
2018-09-04T20:44:01.501Z,21.49
2018-09-04T20:46:29.293Z,21.44
2018-09-04T20:48:57.023Z,21.38
2018-09-04T20:51:24.700Z,21.35
2018-09-04T20:53:52.436Z,21.28
2018-09-04T20:56:20.048Z,21.23
2018-09-04T20:58:58.774Z,21.24
2018-09-04T21:01:37.775Z,21.18
2018-09-04T21:04:16.712Z,21.14
2018-09-04T21:06:44.672Z,21.07
2018-09-04T21:09:28.172Z,21.01
2018-09-04T21:11:55.835Z,21.01
2018-09-04T21:14:23.672Z,20.96
2018-09-04T21:16:52.065Z,20.90
2018-09-04T21:19:19.659Z,20.87
2018-09-04T21:21:47.292Z,20.81
2018-09-04T21:24:15.127Z,20.77
2018-09-04T21:26:42.732Z,20.73
2018-09-04T21:29:10.451Z,20.70
2018-09-04T21:31:38.154Z,20.65
2018-09-04T21:34:05.879Z,20.60
2018-09-04T21:36:33.525Z,20.59
2018-09-04T21:39:01.269Z,20.55
2018-09-04T21:41:28.935Z,20.59
2018-09-04T21:43:56.663Z,20.53
2018-09-04T21:46:24.319Z,20.51
2018-09-04T21:48:52.027Z,20.49
2018-09-04T21:51:19.679Z,20.46
2018-09-04T21:53:47.333Z,20.47
2018-09-04T21:56:14.986Z,20.45
2018-09-04T21:58:42.631Z,20.39
2018-09-04T22:01:10.345Z,20.38
2018-09-04T22:03:38.027Z,20.29
2018-09-04T22:06:05.793Z,20.32
2018-09-04T22:08:33.537Z,20.31
2018-09-04T22:11:01.187Z,20.26
2018-09-04T22:13:28.828Z,20.19
2018-09-04T22:15:56.544Z,20.14
2018-09-04T22:18:24.263Z,20.13
2018-09-04T22:20:51.905Z,20.11
2018-09-04T22:23:19.563Z,20.08
2018-09-04T22:25:47.182Z,20.06
2018-09-04T22:28:14.864Z,20.00
2018-09-04T22:30:42.547Z,19.96
2018-09-04T22:33:10.201Z,19.91
2018-09-04T22:35:37.846Z,19.85
2018-09-04T22:38:05.516Z,19.81
2018-09-04T22:40:33.143Z,19.77
2018-09-04T22:43:00.767Z,19.76
2018-09-04T22:45:28.484Z,19.75
2018-09-04T22:47:56.899Z,19.70
2018-09-04T22:50:30.153Z,19.68
2018-09-04T22:52:57.743Z,19.62
2018-09-04T22:55:25.383Z,19.59
2018-09-04T22:57:53.046Z,19.53
2018-09-04T23:00:20.741Z,19.49
2018-09-04T23:02:48.410Z,19.45
2018-09-04T23:05:16.073Z,19.42
2018-09-04T23:07:43.682Z,19.39
2018-09-04T23:10:11.327Z,19.40
2018-09-04T23:12:39.026Z,19.39
2018-09-04T23:15:06.754Z,19.38
2018-09-04T23:17:34.403Z,19.35
2018-09-04T23:20:41.100Z,19.35
2018-09-04T23:23:08.717Z,19.31
2018-09-04T23:25:36.444Z,19.27
2018-09-04T23:28:04.110Z,19.25
2018-09-04T23:30:31.791Z,19.28
2018-09-04T23:32:59.440Z,19.25
2018-09-04T23:35:27.134Z,19.16
2018-09-04T23:37:54.753Z,19.17
2018-09-04T23:40:22.433Z,19.14
2018-09-04T23:42:50.076Z,19.10
2018-09-04T23:45:17.718Z,19.07
2018-09-04T23:47:45.495Z,19.06
2018-09-04T23:50:13.166Z,19.02
2018-09-04T23:52:41.099Z,19.00
2018-09-04T23:55:08.721Z,18.98
2018-09-04T23:57:36.571Z,18.98
